Time;durP1;ratioP1;P1;durP2;ratioP2;P2;SDS_P1;SDS_P2;PMS_P1;PMS_P2;Temp;Humidity;BMP_temperature;BMP_pressure;BME280_temperature;BME280_humidity;BME280_pressure;Samples;Min_cycle;Max_cycle;Signal;HPM_P1;HPM_P2
2022/03/15 00:00:51;;;;;;;;;9.75;7.75;;;;;16.85;44.89;102109.13;5115257;27;62045;-78
2022/03/15 00:03:16;;;;;;;;;12.50;9.50;;;;;16.86;44.81;102110.94;5081042;27;62859;-77
2022/03/15 00:05:41;;;;;;;;;12.25;8.25;;;;;16.87;44.75;102106.53;5081247;27;61828;-77
2022/03/15 00:08:07;;;;;;;;;11.75;7.50;;;;;16.85;44.92;102108.22;5080731;27;61910;-77
2022/03/15 00:10:33;;;;;;;;;8.75;7.50;;;;;16.84;44.75;102099.38;5114041;27;62205;-77
2022/03/15 00:12:59;;;;;;;;;10.75;8.75;;;;;16.84;44.95;102088.75;5079761;28;63528;-77
2022/03/15 00:15:26;;;;;;;;;7.50;7.50;;;;;16.82;44.95;102086.91;5082005;27;62080;-78
2022/03/15 00:17:52;;;;;;;;;8.25;8.25;;;;;16.82;44.96;102085.16;5082152;27;62008;-77
2022/03/15 00:20:20;;;;;;;;;9.75;7.75;;;;;16.79;45.17;102082.31;5114199;27;61970;-77
2022/03/15 00:22:47;;;;;;;;;12.75;8.00;;;;;16.78;45.29;102083.19;5081375;27;61873;-77
2022/03/15 00:25:17;;;;;;;;;10.00;9.25;;;;;16.77;45.37;102092.88;5081628;27;61737;-77
2022/03/15 00:27:54;;;;;;;;;12.50;7.00;;;;;16.78;44.96;102085.81;5080074;28;61786;-78
2022/03/15 00:30:21;;;;;;;;;12.75;9.00;;;;;16.79;45.39;102079.66;5080577;28;61815;-77
2022/03/15 00:32:48;;;;;;;;;9.25;9.00;;;;;16.80;45.17;102089.47;5080813;27;61984;-78
2022/03/15 00:35:17;;;;;;;;;11.25;6.25;;;;;16.79;45.31;102084.97;5080958;27;61918;-77
2022/03/15 00:37:47;;;;;;;;;9.75;8.25;;;;;16.86;45.14;102083.50;5114499;27;61873;-77
2022/03/15 00:40:17;;;;;;;;;11.00;6.50;;;;;16.84;45.09;102082.53;5080340;28;62258;-78
2022/03/15 00:42:46;;;;;;;;;13.50;8.00;;;;;16.76;45.04;102083.09;5113937;27;62072;-78
2022/03/15 00:45:12;;;;;;;;;10.00;9.00;;;;;16.76;45.43;102087.50;5081769;28;61913;-78
2022/03/15 00:47:38;;;;;;;;;10.25;8.00;;;;;16.76;45.51;102080.44;5081463;27;61624;-78
2022/03/15 00:50:03;;;;;;;;;13.00;9.75;;;;;16.79;45.61;102086.72;5080829;28;61998;-78
2022/03/15 00:52:29;;;;;;;;;10.25;8.50;;;;;16.82;45.52;102089.56;5080752;27;62983;-78
2022/03/15 00:54:54;;;;;;;;;10.75;7.75;;;;;16.82;45.73;102086.91;5097199;27;61956;-78
2022/03/15 00:57:20;;;;;;;;;9.25;9.25;;;;;16.84;45.50;102080.81;5113657;27;61917;-77
2022/03/15 00:59:45;;;;;;;;;11.25;8.75;;;;;16.84;45.58;102072.84;5097202;27;62233;-77
2022/03/15 01:02:11;;;;;;;;;10.00;10.00;;;;;16.87;45.70;102074.72;5080561;28;62927;-78
2022/03/15 01:04:36;;;;;;;;;9.25;9.25;;;;;16.84;45.71;102072.84;5080803;27;62173;-78
2022/03/15 01:07:02;;;;;;;;;14.25;11.00;;;;;16.83;45.44;102065.72;5081192;27;62158;-78
2022/03/15 01:09:29;;;;;;;;;11.00;8.75;;;;;16.83;45.63;102062.19;5080205;28;61876;-77
2022/03/15 01:11:59;;;;;;;;;17.75;7.75;;;;;16.82;45.56;102063.94;5113293;27;61826;-77
2022/03/15 01:14:25;;;;;;;;;10.50;7.00;;;;;16.78;45.66;102056.66;5081358;27;61827;-77
2022/03/15 01:16:51;;;;;;;;;9.00;8.00;;;;;16.74;45.95;102050.31;5114133;27;61849;-78
2022/03/15 01:19:16;;;;;;;;;10.25;9.00;;;;;16.72;46.04;102049.34;5113252;27;61740;-78
2022/03/15 01:21:42;;;;;;;;;14.25;10.25;;;;;16.70;46.10;102051.03;5096967;27;61746;-77
2022/03/15 01:24:08;;;;;;;;;6.75;6.75;;;;;16.69;45.93;102043.94;5084761;27;61918;-78
2022/03/15 01:26:37;;;;;;;;;14.25;10.00;;;;;16.71;45.76;102047.56;5084235;27;61857;-77
2022/03/15 01:29:03;;;;;;;;;13.50;11.00;;;;;16.72;46.01;102046.69;5084827;27;62083;-77
2022/03/15 01:31:29;;;;;;;;;7.25;6.75;;;;;16.74;46.30;102045.00;5116639;27;61880;-77
2022/03/15 01:33:55;;;;;;;;;10.50;10.25;;;;;16.77;46.00;102037.19;5082724;28;61789;-77
2022/03/15 01:36:21;;;;;;;;;8.50;7.00;;;;;16.77;46.19;102033.63;5084119;27;62077;-77
2022/03/15 01:38:47;;;;;;;;;11.50;9.75;;;;;16.80;46.11;102024.91;5117393;27;61860;-77
2022/03/15 01:41:12;;;;;;;;;8.50;8.50;;;;;16.81;45.86;102024.09;5082510;27;62085;-77
2022/03/15 01:43:40;;;;;;;;;14.75;10.25;;;;;16.83;46.02;102022.41;5084336;27;61929;-78
2022/03/15 01:46:06;;;;;;;;;12.25;10.50;;;;;16.83;46.02;102020.63;5117212;27;62045;-77
2022/03/15 01:48:32;;;;;;;;;11.00;8.75;;;;;16.84;45.96;102010.94;5116823;27;61752;-77
2022/03/15 01:50:58;;;;;;;;;9.75;7.00;;;;;16.83;45.61;102010.03;5081974;28;63265;-77
2022/03/15 01:53:24;;;;;;;;;10.00;7.25;;;;;16.80;45.83;102012.56;5084171;27;62349;-77
2022/03/15 01:55:50;;;;;;;;;18.25;10.00;;;;;16.81;46.04;102001.09;5100053;27;62074;-78
2022/03/15 01:58:16;;;;;;;;;11.75;8.25;;;;;16.84;46.23;101997.66;5083629;27;61740;-77
2022/03/15 02:00:42;;;;;;;;;9.75;7.00;;;;;16.84;46.15;101993.28;5083400;27;61922;-77
2022/03/15 02:03:07;;;;;;;;;10.00;7.50;;;;;16.87;46.07;101995.16;5116473;27;61820;-78
2022/03/15 02:05:33;;;;;;;;;9.00;7.00;;;;;16.90;45.91;101990.88;5083454;27;61876;-77
2022/03/15 02:08:07;;;;;;;;;8.25;8.25;;;;;16.91;45.80;101986.47;5083797;27;62191;-77
2022/03/15 02:10:33;;;;;;;;;9.50;8.75;;;;;16.90;46.17;101982.00;5099153;27;63073;-78
2022/03/15 02:12:58;;;;;;;;;6.50;5.75;;;;;16.89;46.06;101982.84;5083400;27;61764;-77
2022/03/15 02:15:24;;;;;;;;;8.25;7.00;;;;;16.86;45.70;101969.47;5084132;27;62416;-77
2022/03/15 02:17:49;;;;;;;;;3.50;3.00;;;;;16.83;45.74;101977.31;5116244;27;61800;-77
2022/03/15 02:20:15;;;;;;;;;9.25;4.75;;;;;16.82;45.88;101973.75;5082928;27;61998;-77
2022/03/15 02:22:40;;;;;;;;;6.25;5.75;;;;;16.84;45.81;101973.78;5116509;27;61825;-76
2022/03/15 02:25:06;;;;;;;;;9.25;5.00;;;;;16.85;45.95;101970.31;5083611;27;61854;-77
2022/03/15 02:27:32;;;;;;;;;3.75;3.75;;;;;16.80;46.32;101962.19;5083149;27;61735;-77
2022/03/15 02:29:57;;;;;;;;;5.00;4.00;;;;;16.84;46.30;101960.53;5083072;27;61971;-77
2022/03/15 02:32:23;;;;;;;;;3.00;3.00;;;;;16.82;46.26;101955.19;5082623;27;61926;-77
2022/03/15 02:34:48;;;;;;;;;11.25;5.75;;;;;16.85;46.88;101955.31;5115353;27;61850;-77
2022/03/15 02:37:13;;;;;;;;;9.00;7.00;;;;;16.89;46.55;101951.03;5083573;27;62473;-77
2022/03/15 02:39:39;;;;;;;;;8.50;6.50;;;;;16.92;47.05;101951.13;5115557;27;62409;-78
2022/03/15 02:42:05;;;;;;;;;9.25;5.00;;;;;16.92;47.32;101943.16;5084577;27;61803;-77
2022/03/15 02:44:30;;;;;;;;;8.50;5.25;;;;;16.91;47.34;101947.56;5116349;27;62074;-77
2022/03/15 02:46:56;;;;;;;;;5.25;5.25;;;;;16.94;47.61;101946.78;5082777;27;61933;-77
2022/03/15 02:49:21;;;;;;;;;14.75;7.00;;;;;16.96;47.40;101940.69;5082464;27;62345;-77
2022/03/15 02:51:47;;;;;;;;;8.25;8.25;;;;;16.94;48.06;101931.75;5083054;27;61879;-77
2022/03/15 02:54:13;;;;;;;;;9.25;7.50;;;;;16.95;48.14;101938.88;5083222;27;62506;-77
2022/03/15 02:56:42;;;;;;;;;5.00;5.00;;;;;16.96;48.47;101929.19;5081130;28;61842;-77
2022/03/15 02:59:12;;;;;;;;;4.75;4.75;;;;;16.99;48.21;101931.97;5082421;28;62758;-77
2022/03/15 03:01:37;;;;;;;;;5.25;5.25;;;;;16.96;48.61;101927.41;5115499;27;61844;-77
2022/03/15 03:04:03;;;;;;;;;7.25;6.25;;;;;17.03;48.56;101923.28;5082977;27;61894;-77
2022/03/15 03:06:28;;;;;;;;;9.00;6.50;;;;;17.10;48.70;101919.09;5082738;27;61894;-77
2022/03/15 03:08:54;;;;;;;;;14.00;7.50;;;;;17.13;48.44;101911.22;5082350;28;62187;-77
2022/03/15 03:11:19;;;;;;;;;5.75;5.75;;;;;17.15;48.86;101917.47;5083104;28;61947;-77
2022/03/15 03:13:47;;;;;;;;;6.75;5.50;;;;;17.17;49.00;101914.03;5081315;28;61834;-77
2022/03/15 03:16:13;;;;;;;;;9.50;6.00;;;;;17.17;49.13;101915.78;5082532;27;62163;-77
2022/03/15 03:18:39;;;;;;;;;5.75;5.00;;;;;17.07;49.96;101913.66;5082168;27;61916;-77
2022/03/15 03:21:06;;;;;;;;;8.00;6.25;;;;;17.03;50.17;101914.38;5082295;27;61896;-77
2022/03/15 03:23:34;;;;;;;;;10.75;7.00;;;;;17.05;49.98;101910.97;5083064;27;61823;-77
2022/03/15 03:26:01;;;;;;;;;8.75;7.00;;;;;17.06;50.42;101911.84;5115366;27;61785;-77
2022/03/15 03:28:36;;;;;;;;;6.00;6.00;;;;;17.08;50.10;101920.78;5114758;27;63026;-77
2022/03/15 03:31:04;;;;;;;;;11.00;7.50;;;;;17.08;50.64;101913.72;5082171;28;61842;-77
2022/03/15 03:33:30;;;;;;;;;10.00;7.25;;;;;17.10;50.94;101916.44;5081125;28;61955;-77
2022/03/15 03:35:55;;;;;;;;;5.75;5.00;;;;;17.11;50.84;101916.47;5082469;27;61731;-77
2022/03/15 03:38:21;;;;;;;;;8.00;7.75;;;;;17.11;51.54;101916.47;5081912;27;62018;-77
2022/03/15 03:40:46;;;;;;;;;10.50;7.00;;;;;17.12;51.71;101914.75;5080998;28;61885;-77
2022/03/15 03:43:12;;;;;;;;;10.75;8.75;;;;;17.12;51.98;101910.31;5080728;27;61740;-77
2022/03/15 03:45:38;;;;;;;;;11.75;7.00;;;;;17.13;52.43;101924.47;5081110;28;62419;-77
2022/03/15 03:48:06;;;;;;;;;8.50;6.00;;;;;17.14;52.82;101915.69;5080368;28;65015;-77
2022/03/15 03:50:32;;;;;;;;;7.75;7.00;;;;;17.17;52.61;101918.44;5082142;28;61831;-77
2022/03/15 03:52:58;;;;;;;;;11.75;7.75;;;;;17.14;53.00;101924.56;5082094;27;61764;-77
2022/03/15 03:55:24;;;;;;;;;10.25;9.50;;;;;17.15;53.25;101907.75;5082173;27;61703;-77
2022/03/15 03:57:50;;;;;;;;;11.50;8.25;;;;;17.16;53.62;101906.03;5113601;27;65049;-77
2022/03/15 04:00:16;;;;;;;;;8.00;8.00;;;;;17.13;53.80;101911.22;5080611;28;61923;-77
2022/03/15 04:02:42;;;;;;;;;8.25;7.50;;;;;17.12;54.08;101912.09;5097797;27;61881;-77
2022/03/15 04:05:08;;;;;;;;;9.00;6.50;;;;;17.11;54.24;101911.16;5114699;27;61884;-77
2022/03/15 04:07:35;;;;;;;;;10.00;8.25;;;;;17.11;54.36;101904.94;5081281;27;63043;-77
2022/03/15 04:10:00;;;;;;;;;9.00;7.75;;;;;17.14;54.54;101907.72;5082053;27;62189;-77
2022/03/15 04:12:27;;;;;;;;;10.25;10.25;;;;;17.15;54.04;101905.13;5114338;27;61881;-77
2022/03/15 04:14:53;;;;;;;;;8.50;7.00;;;;;17.17;54.37;101899.88;5082290;27;61712;-77
2022/03/15 04:17:18;;;;;;;;;9.50;7.00;;;;;17.17;55.08;101898.09;5081287;27;61850;-77
2022/03/15 04:19:44;;;;;;;;;13.00;8.00;;;;;17.16;55.29;101901.63;5080116;28;61778;-77
2022/03/15 04:22:09;;;;;;;;;10.50;7.50;;;;;17.12;55.90;101897.06;5081943;27;61716;-77
2022/03/15 04:24:35;;;;;;;;;10.00;8.00;;;;;17.08;55.89;101897.78;5114660;27;61924;-77
2022/03/15 04:27:00;;;;;;;;;10.50;8.50;;;;;17.06;56.36;101894.19;5080148;27;62818;-77
2022/03/15 04:29:26;;;;;;;;;13.50;10.00;;;;;17.06;56.52;101896.84;5081658;28;61804;-77
2022/03/15 04:31:52;;;;;;;;;10.25;7.50;;;;;17.01;56.33;101892.19;5081729;27;61707;-77
2022/03/15 04:34:18;;;;;;;;;7.00;7.00;;;;;16.99;57.26;101891.25;5082059;28;61764;-77
2022/03/15 04:36:45;;;;;;;;;12.00;8.25;;;;;16.99;57.11;101888.59;5112902;27;63592;-77
2022/03/15 04:39:12;;;;;;;;;12.50;10.75;;;;;17.00;57.04;101882.44;5081745;28;61794;-77
2022/03/15 04:41:39;;;;;;;;;13.75;7.75;;;;;17.02;57.32;101878.09;5081157;27;61823;-77
2022/03/15 04:44:08;;;;;;;;;11.50;8.00;;;;;17.04;57.38;101877.31;5081757;27;61775;-77
2022/03/15 04:46:34;;;;;;;;;8.00;8.00;;;;;17.05;57.40;101880.84;5096338;27;61919;-77
2022/03/15 04:49:00;;;;;;;;;10.75;7.25;;;;;17.03;57.66;101872.88;5081613;28;61912;-77
2022/03/15 04:51:25;;;;;;;;;11.25;9.25;;;;;16.99;58.03;101873.59;5079997;28;61998;-77
2022/03/15 04:53:52;;;;;;;;;9.50;7.50;;;;;16.99;57.81;101872.69;5081668;28;61758;-77
2022/03/15 04:56:18;;;;;;;;;13.00;8.00;;;;;16.93;58.75;101874.28;5095468;27;63587;-77
2022/03/15 04:58:44;;;;;;;;;8.75;7.00;;;;;16.91;58.80;101875.97;5084457;27;61870;-76
2022/03/15 05:01:10;;;;;;;;;8.50;8.25;;;;;16.93;58.68;101873.38;5085085;27;61803;-77
2022/03/15 05:03:36;;;;;;;;;9.00;7.25;;;;;16.95;59.00;101877.88;5085110;28;62125;-76
2022/03/15 05:06:02;;;;;;;;;11.00;8.25;;;;;16.99;58.50;101872.69;5116988;27;61820;-76
2022/03/15 05:08:28;;;;;;;;;12.25;10.50;;;;;16.99;59.10;101870.94;5084695;27;61907;-77
2022/03/15 05:11:06;;;;;;;;;11.25;8.75;;;;;16.96;58.85;101878.78;5084240;27;61744;-77
2022/03/15 05:13:40;;;;;;;;;7.50;7.50;;;;;16.98;59.01;101868.22;5084877;27;61980;-77
2022/03/15 05:16:11;;;;;;;;;12.00;9.25;;;;;16.96;58.89;101873.47;5084213;27;62119;-77
2022/03/15 05:18:37;;;;;;;;;10.00;9.50;;;;;16.92;59.24;101868.91;5084782;27;61823;-76
2022/03/15 05:21:05;;;;;;;;;7.50;7.50;;;;;16.97;58.96;101870.00;5084512;27;62500;-77
2022/03/15 05:23:31;;;;;;;;;10.00;8.75;;;;;16.94;59.74;101872.50;5117606;27;61943;-77
2022/03/15 05:25:57;;;;;;;;;8.25;8.25;;;;;16.91;59.87;101873.31;5083001;27;62951;-76
2022/03/15 05:28:22;;;;;;;;;9.25;8.25;;;;;16.89;59.84;101872.34;5100289;27;61811;-77
2022/03/15 05:30:48;;;;;;;;;14.50;11.25;;;;;16.90;59.89;101875.91;5100054;27;61757;-76
2022/03/15 05:33:13;;;;;;;;;11.50;11.50;;;;;16.92;59.99;101868.91;5084362;28;61688;-77
2022/03/15 05:35:39;;;;;;;;;15.75;11.00;;;;;16.96;60.19;101876.13;5083411;27;61836;-77
2022/03/15 05:38:04;;;;;;;;;12.75;12.50;;;;;16.98;60.25;101877.09;5083073;28;61739;-77
2022/03/15 05:40:30;;;;;;;;;16.00;13.50;;;;;17.01;60.17;101878.94;5084003;27;61905;-77
2022/03/15 05:42:56;;;;;;;;;10.50;10.00;;;;;17.04;60.28;101876.41;5082754;28;61743;-77
2022/03/15 05:45:22;;;;;;;;;17.00;11.00;;;;;17.05;60.24;101876.47;5083684;27;62663;-77
2022/03/15 05:47:48;;;;;;;;;16.00;12.75;;;;;17.07;60.39;101877.41;5082619;28;61875;-77
2022/03/15 05:50:14;;;;;;;;;16.50;14.00;;;;;17.10;60.16;101879.28;5083666;27;61689;-77
2022/03/15 05:52:39;;;;;;;;;15.50;13.25;;;;;17.11;60.41;101875.78;5084475;27;61783;-77
2022/03/15 05:55:05;;;;;;;;;15.25;11.50;;;;;17.12;60.29;101883.78;5082746;27;63004;-77
2022/03/15 05:57:30;;;;;;;;;17.25;11.75;;;;;17.13;60.45;101874.06;5083475;27;62003;-77
2022/03/15 05:59:56;;;;;;;;;12.25;12.25;;;;;17.13;60.71;101879.38;5083999;27;61815;-76
2022/03/15 06:02:21;;;;;;;;;10.50;10.50;;;;;17.13;60.62;101882.94;5084081;27;61967;-77
2022/03/15 06:04:47;;;;;;;;;15.50;11.75;;;;;17.13;60.87;101882.94;5115830;27;61839;-76
2022/03/15 06:07:12;;;;;;;;;16.50;14.00;;;;;17.12;61.18;101877.59;5083964;27;61945;-78
2022/03/15 06:09:38;;;;;;;;;21.50;14.75;;;;;17.12;61.16;101878.50;5097558;27;61851;-77
2022/03/15 06:12:04;;;;;;;;;16.50;12.25;;;;;17.12;61.34;101882.91;5117249;27;61858;-79
2022/03/15 06:14:29;;;;;;;;;17.50;12.25;;;;;17.12;61.28;101888.22;5116056;27;64290;-75
2022/03/15 06:16:55;;;;;;;;;12.50;12.25;;;;;17.14;61.19;101894.47;5083433;27;61855;-77
2022/03/15 06:19:20;;;;;;;;;18.25;14.75;;;;;17.13;61.54;101893.53;5083812;28;61785;-79
2022/03/15 06:21:46;;;;;;;;;15.00;12.25;;;;;17.14;61.54;101894.47;5093353;27;61789;-78
2022/03/15 06:24:11;;;;;;;;;18.00;15.00;;;;;17.16;61.58;101898.09;5103042;27;63077;-77
2022/03/15 06:26:38;;;;;;;;;18.25;14.00;;;;;17.17;61.56;101889.25;5103250;27;61855;-79
2022/03/15 06:29:04;;;;;;;;;17.25;15.75;;;;;17.17;61.57;101878.66;5103855;27;62050;-80
2022/03/15 06:31:31;;;;;;;;;16.50;12.00;;;;;17.18;61.84;101880.44;5119788;27;61875;-81
2022/03/15 06:33:56;;;;;;;;;21.25;13.50;;;;;17.19;61.72;101884.00;5101835;27;63936;-82
2022/03/15 06:36:22;;;;;;;;;14.50;11.00;;;;;17.21;61.88;101895.59;5102211;27;61858;-82
2022/03/15 06:38:48;;;;;;;;;16.50;12.25;;;;;17.22;61.85;101892.06;5102956;27;62027;-83
2022/03/15 06:41:16;;;;;;;;;16.25;13.50;;;;;17.22;62.03;101887.66;5103298;27;61725;-78
2022/03/15 06:43:42;;;;;;;;;18.00;13.75;;;;;17.23;61.84;101886.81;5100571;27;61852;-83
2022/03/15 06:46:09;;;;;;;;;33.00;28.50;;;;;17.25;61.50;101890.44;5100962;27;62102;-77
2022/03/15 06:48:35;;;;;;;;;23.25;19.00;;;;;17.27;61.68;101885.19;5101912;27;61901;-78
2022/03/15 06:51:02;;;;;;;;;22.50;21.00;;;;;17.27;61.83;101891.38;5101628;27;62104;-78
2022/03/15 06:53:28;;;;;;;;;34.25;24.00;;;;;17.28;61.73;101892.28;5101035;27;63817;-78
2022/03/15 06:55:54;;;;;;;;;25.00;19.75;;;;;17.27;61.80;101893.16;5102101;27;61881;-79
2022/03/15 06:58:20;;;;;;;;;27.50;18.75;;;;;17.28;61.94;101886.97;5102698;27;61999;-78
2022/03/15 07:00:45;;;;;;;;;11.00;10.50;;;;;17.26;62.02;101878.94;5101824;27;61862;-79
2022/03/15 07:03:11;;;;;;;;;13.25;12.00;;;;;17.28;62.30;101879.91;5102969;27;62954;-79
2022/03/15 07:05:36;;;;;;;;;17.25;14.75;;;;;17.31;62.04;101880.03;5101600;27;61964;-78
2022/03/15 07:08:02;;;;;;;;;20.00;18.00;;;;;17.31;61.83;101874.72;5101022;27;62060;-79
2022/03/15 07:10:28;;;;;;;;;16.00;14.00;;;;;17.32;62.05;101883.59;5103373;27;62086;-80
2022/03/15 07:12:53;;;;;;;;;20.25;17.75;;;;;17.31;61.96;101888.00;5103728;27;63474;-81
2022/03/15 07:15:20;;;;;;;;;19.50;19.50;;;;;17.32;61.84;101879.16;5104366;27;61823;-79
2022/03/15 07:17:56;;;;;;;;;26.75;19.25;;;;;17.52;61.33;101892.22;5104242;27;62237;-79
2022/03/15 07:20:24;;;;;;;;;17.75;16.00;;;;;17.56;61.51;101892.34;5102428;27;62149;-79
2022/03/15 07:22:50;;;;;;;;;16.50;15.50;;;;;17.53;61.21;101896.69;5103656;27;61851;-79
2022/03/15 07:25:17;;;;;;;;;18.00;16.50;;;;;17.54;61.57;101895.81;5101782;27;61799;-79
2022/03/15 07:27:43;;;;;;;;;16.75;16.25;;;;;17.49;61.69;101886.81;5102045;27;61977;-80
2022/03/15 07:30:09;;;;;;;;;14.25;12.75;;;;;17.50;61.61;101889.53;5102558;27;61855;-82
2022/03/15 07:32:35;;;;;;;;;21.25;21.00;;;;;17.51;61.38;101901.03;5101937;27;63732;-84
2022/03/15 07:35:01;;;;;;;;;24.50;18.25;;;;;17.51;61.79;101901.94;5104034;27;61935;-84
2022/03/15 07:37:26;;;;;;;;;25.50;22.25;;;;;17.52;61.46;101903.75;5103700;27;61942;-78
2022/03/15 07:39:52;;;;;;;;;19.75;18.25;;;;;17.52;61.67;101901.09;5103337;27;62128;-82
2022/03/15 07:42:19;;;;;;;;;21.25;18.25;;;;;17.56;61.45;101888.81;5102792;27;62041;-83
2022/03/15 07:44:45;;;;;;;;;19.75;18.00;;;;;17.54;62.17;101891.41;5101657;27;61912;-82
2022/03/15 07:47:14;;;;;;;;;27.75;22.25;;;;;17.61;61.74;101881.91;5102282;27;61756;-82
2022/03/15 07:49:40;;;;;;;;;22.00;17.00;;;;;17.65;61.84;101878.53;5103799;27;61897;-82
2022/03/15 07:52:06;;;;;;;;;19.75;19.75;;;;;17.69;61.87;101875.09;5101679;27;63520;-83
2022/03/15 07:54:32;;;;;;;;;20.25;19.00;;;;;17.73;61.71;101874.34;5102252;27;62037;-83
2022/03/15 07:56:57;;;;;;;;;19.25;15.50;;;;;17.76;61.73;101866.47;5102924;27;61878;-82
2022/03/15 07:59:23;;;;;;;;;30.25;18.50;;;;;17.79;61.39;101873.66;5119746;27;61855;-82
2022/03/15 08:01:48;;;;;;;;;29.75;25.25;;;;;17.77;61.32;101878.91;5102923;27;62222;-82
2022/03/15 08:04:14;;;;;;;;;34.00;25.75;;;;;17.76;61.58;101869.16;5103456;27;61905;-82
2022/03/15 08:06:40;;;;;;;;;25.75;22.25;;;;;17.80;61.33;101875.44;5102262;27;61919;-83
2022/03/15 08:09:05;;;;;;;;;27.25;22.75;;;;;17.82;61.32;101868.44;5103820;27;62236;-83
2022/03/15 08:11:32;;;;;;;;;21.00;20.75;;;;;17.83;61.70;101877.34;5103140;27;63187;-82
2022/03/15 08:13:58;;;;;;;;;21.50;16.25;;;;;17.85;61.44;101881.84;5103542;27;61773;-83
2022/03/15 08:16:24;;;;;;;;;20.25;19.25;;;;;17.82;61.31;101875.50;5119659;27;62052;-83
2022/03/15 08:18:50;;;;;;;;;23.25;19.50;;;;;17.83;61.13;101870.28;5101939;27;61907;-82
2022/03/15 08:21:17;;;;;;;;;21.50;21.50;;;;;17.80;61.37;101872.78;5101366;27;63398;-83
2022/03/15 08:23:43;;;;;;;;;25.50;23.00;;;;;17.79;61.40;101873.66;5102122;27;62095;-83
2022/03/15 08:26:09;;;;;;;;;27.50;18.75;;;;;17.78;61.64;101870.09;5101880;27;61782;-82
2022/03/15 08:28:35;;;;;;;;;25.75;23.25;;;;;17.81;61.49;101881.66;5102198;27;61772;-83
2022/03/15 08:31:01;;;;;;;;;27.25;20.75;;;;;17.82;61.53;101881.72;5102309;27;61758;-83
2022/03/15 08:33:27;;;;;;;;;27.50;20.75;;;;;17.81;61.41;101879.00;5102729;27;61791;-83
2022/03/15 08:35:52;;;;;;;;;27.25;23.00;;;;;17.82;61.49;101876.41;5103248;27;61828;-82
2022/03/15 08:38:18;;;;;;;;;28.50;21.25;;;;;17.85;61.26;101875.66;5103551;27;61716;-83
2022/03/15 08:40:44;;;;;;;;;22.50;19.50;;;;;17.86;61.45;101873.00;5135789;27;61885;-82
2022/03/15 08:43:10;;;;;;;;;26.75;19.75;;;;;17.87;61.59;101874.84;5101840;27;61834;-84
2022/03/15 08:45:36;;;;;;;;;24.00;19.50;;;;;17.91;61.81;101878.47;5101871;27;61779;-83
2022/03/15 08:48:01;;;;;;;;;37.25;28.50;;;;;17.92;61.48;101885.59;5101705;27;62048;-82
2022/03/15 08:50:27;;;;;;;;;32.25;27.75;;;;;17.90;61.59;101884.66;5102232;27;62781;-83
2022/03/15 08:52:55;;;;;;;;;24.75;22.25;;;;;17.91;61.28;101887.38;5101567;27;61758;-82
2022/03/15 08:55:21;;;;;;;;;24.75;21.00;;;;;17.88;61.65;101889.00;5102119;27;61825;-83
2022/03/15 08:57:47;;;;;;;;;31.00;24.00;;;;;17.90;61.13;101889.97;5102549;27;62063;-83
2022/03/15 09:00:13;;;;;;;;;24.25;23.75;;;;;17.84;61.43;101884.44;5100922;27;64774;-83
2022/03/15 09:02:38;;;;;;;;;29.25;25.75;;;;;17.87;61.44;101889.88;5102687;27;61928;-83
2022/03/15 09:05:04;;;;;;;;;25.00;24.25;;;;;17.83;61.41;101909.22;5135969;27;62001;-82
2022/03/15 09:07:30;;;;;;;;;23.75;20.50;;;;;17.76;61.81;101916.94;5101828;27;61867;-82
2022/03/15 09:09:56;;;;;;;;;28.00;25.50;;;;;17.72;61.97;101915.03;5102488;27;62967;-83
2022/03/15 09:12:21;;;;;;;;;23.00;20.25;;;;;17.70;62.06;101898.16;5101470;27;61943;-82
2022/03/15 09:14:48;;;;;;;;;33.50;28.25;;;;;17.72;62.40;101900.88;5102939;27;61854;-82
2022/03/15 09:17:14;;;;;;;;;30.75;28.25;;;;;17.77;62.19;101905.44;5102644;27;61704;-82
2022/03/15 09:19:40;;;;;;;;;26.50;23.75;;;;;17.80;62.17;101912.63;5100849;27;62123;-82
2022/03/15 09:22:08;;;;;;;;;28.25;25.00;;;;;17.85;62.05;101904.88;5102044;27;61758;-82
2022/03/15 09:24:36;;;;;;;;;30.50;25.50;;;;;17.89;62.18;101899.69;5101312;27;61818;-83
2022/03/15 09:27:02;;;;;;;;;28.50;26.00;;;;;17.94;62.07;101903.38;5100972;27;61878;-82
2022/03/15 09:29:28;;;;;;;;;33.50;29.25;;;;;17.93;61.93;101906.91;5102238;27;62942;-83
2022/03/15 09:31:54;;;;;;;;;32.25;25.00;;;;;17.94;61.97;101910.47;5100691;27;61946;-83
2022/03/15 09:34:22;;;;;;;;;35.50;31.00;;;;;17.98;61.96;101896.44;5101509;27;62201;-83
2022/03/15 09:36:49;;;;;;;;;41.00;37.50;;;;;18.09;62.07;101891.44;5102558;27;62092;-83
2022/03/15 09:39:15;;;;;;;;;36.75;30.25;;;;;18.18;61.49;101879.34;5100521;27;65016;-82
2022/03/15 09:41:41;;;;;;;;;33.00;31.75;;;;;18.26;61.60;101882.25;5101057;27;61844;-82
2022/03/15 09:44:09;;;;;;;;;33.50;30.50;;;;;18.36;61.05;101891.41;5105478;27;61867;-83
2022/03/15 09:46:42;;;;;;;;;46.00;34.50;;;;;18.42;60.57;101883.59;5104688;27;62116;-83
2022/03/15 09:49:08;;;;;;;;;34.50;29.75;;;;;18.46;60.73;101881.94;5105379;27;63362;-83
2022/03/15 09:51:35;;;;;;;;;33.25;27.00;;;;;18.52;60.98;101880.34;5104317;27;61969;-83
2022/03/15 09:54:04;;;;;;;;;30.50;25.00;;;;;18.55;60.59;101875.16;5106084;27;61953;-83
2022/03/15 09:56:38;;;;;;;;;37.25;30.75;;;;;18.59;60.92;101866.41;5104173;27;61817;-83
2022/03/15 09:59:10;;;;;;;;;27.25;25.50;;;;;18.66;60.97;101861.22;5103734;27;63368;-83
2022/03/15 10:01:38;;;;;;;;;38.25;29.50;;;;;18.68;60.27;101868.41;5105517;27;61758;-83
2022/03/15 10:04:04;;;;;;;;;28.50;24.75;;;;;18.69;60.60;101867.53;5104445;27;61861;-83
2022/03/15 10:06:30;;;;;;;;;35.75;26.25;;;;;18.71;60.30;101867.59;5121626;27;61901;-83
2022/03/15 10:08:56;;;;;;;;;38.25;32.25;;;;;18.70;60.56;101866.72;5120800;27;64346;-83
2022/03/15 10:11:23;;;;;;;;;32.75;31.25;;;;;18.68;61.01;101872.81;5105487;27;61814;-82
2022/03/15 10:13:50;;;;;;;;;44.25;35.00;;;;;18.66;60.44;101869.22;5105172;27;62038;-83
2022/03/15 10:16:15;;;;;;;;;32.75;27.75;;;;;18.57;60.55;101870.78;5105347;27;61729;-83
2022/03/15 10:18:56;;;;;;;;;39.25;33.50;;;;;18.55;59.93;101863.56;5104952;27;62646;-82
2022/03/15 10:21:25;;;;;;;;;31.75;26.00;;;;;18.53;60.93;101870.59;5103902;27;61957;-83
2022/03/15 10:23:58;;;;;;;;;37.75;30.50;;;;;18.49;60.66;101859.00;5105610;27;61916;-83
2022/03/15 10:26:25;;;;;;;;;33.25;28.75;;;;;18.45;60.85;101861.53;5102864;27;62047;-83
2022/03/15 10:28:53;;;;;;;;;33.50;32.50;;;;;18.43;61.00;101871.22;5137980;27;64377;-83
2022/03/15 10:31:23;;;;;;;;;24.75;24.75;;;;;18.38;60.92;101864.00;5103681;27;62190;-82
2022/03/15 10:33:52;;;;;;;;;39.00;29.50;;;;;18.36;61.08;101863.06;5104015;27;61813;-83
2022/03/15 10:36:19;;;;;;;;;33.50;27.75;;;;;18.36;61.47;101865.72;5103885;27;61813;-83
2022/03/15 10:38:50;;;;;;;;;44.00;33.25;;;;;18.39;61.39;101854.28;5103219;27;63743;-83
2022/03/15 10:41:16;;;;;;;;;33.00;29.25;;;;;18.40;61.34;101856.06;5103725;27;61798;-83
2022/03/15 10:43:42;;;;;;;;;37.50;31.75;;;;;18.41;61.29;101860.53;5103550;27;61871;-83
2022/03/15 10:46:12;;;;;;;;;31.50;26.75;;;;;18.40;61.14;101856.06;5104867;27;61795;-83
2022/03/15 10:48:39;;;;;;;;;34.00;29.50;;;;;18.41;61.38;101851.66;5104409;27;62103;-83
2022/03/15 10:51:15;;;;;;;;;40.75;35.50;;;;;18.43;60.88;101844.63;5103506;27;62085;-83
2022/03/15 10:53:48;;;;;;;;;44.50;30.50;;;;;18.41;61.37;101841.94;5103346;27;61975;-82
2022/03/15 10:56:23;;;;;;;;;37.75;29.50;;;;;18.34;61.34;101853.25;5104163;27;62044;-82
2022/03/15 10:59:03;;;;;;;;;31.50;28.75;;;;;18.32;61.66;101861.16;5103617;27;62121;-82
2022/03/15 11:01:37;;;;;;;;;39.75;33.25;;;;;18.31;61.25;101855.78;5104706;27;61925;-83
2022/03/15 11:04:06;;;;;;;;;36.50;32.50;;;;;18.33;61.92;101854.09;5103011;27;61894;-83
2022/03/15 11:06:44;;;;;;;;;39.00;32.00;;;;;18.34;61.45;101851.47;5104407;27;61786;-83
2022/03/15 11:09:15;;;;;;;;;37.75;27.75;;;;;18.34;61.53;101846.16;5103908;27;62151;-82
2022/03/15 11:11:42;;;;;;;;;29.25;27.00;;;;;18.33;61.67;101843.44;5104561;27;62068;-83